Time;durP1;ratioP1;P1;durP2;ratioP2;P2;SDS_P1;SDS_P2;PMS_P1;PMS_P2;Temp;Humidity;BMP_temperature;BMP_pressure;BME280_temperature;BME280_humidity;BME280_pressure;Samples;Min_cycle;Max_cycle;Signal;HPM_P1;HPM_P2
2023/11/11 00:00:29;;;;;;;6.35;1.10;;;;;;;5.24;100.00;100132.16;4995359;28;20113;-77
2023/11/11 00:02:55;;;;;;;11.27;1.10;;;;;;;5.26;100.00;100134.69;4993346;28;20038;-77
2023/11/11 00:05:22;;;;;;;13.95;1.38;;;;;;;5.27;100.00;100131.94;4995132;28;20066;-79
2023/11/11 00:07:48;;;;;;;6.97;1.58;;;;;;;5.29;100.00;100135.25;4995200;28;20126;-79
2023/11/11 00:10:13;;;;;;;7.28;1.05;;;;;;;5.37;100.00;100141.75;4994812;28;20129;-78
2023/11/11 00:12:39;;;;;;;17.83;2.08;;;;;;;5.46;100.00;100138.34;4994881;28;20030;-79
2023/11/11 00:15:09;;;;;;;10.82;2.08;;;;;;;5.53;100.00;100136.91;4995215;28;20045;-79
2023/11/11 00:17:35;;;;;;;6.72;1.33;;;;;;;5.61;100.00;100138.91;4977096;28;20030;-81
2023/11/11 00:20:02;;;;;;;10.27;1.48;;;;;;;5.71;100.00;100160.16;4994927;28;20045;-79
2023/11/11 00:22:28;;;;;;;11.43;1.30;;;;;;;5.78;100.00;100158.69;4994418;28;20390;-81
2023/11/11 00:24:54;;;;;;;6.53;1.52;;;;;;;5.81;100.00;100155.78;4994556;28;20107;-78
2023/11/11 00:27:20;;;;;;;15.45;2.95;;;;;;;5.92;100.00;100150.47;4993350;28;20427;-82
2023/11/11 00:29:46;;;;;;;13.38;1.40;;;;;;;5.96;100.00;100153.72;4994848;28;20118;-80
2023/11/11 00:32:12;;;;;;;7.72;1.48;;;;;;;5.96;100.00;100151.88;4994751;28;20145;-80
2023/11/11 00:34:39;;;;;;;12.88;1.50;;;;;;;5.94;100.00;100145.91;4994701;28;20042;-81
2023/11/11 00:37:06;;;;;;;6.82;0.82;;;;;;;5.89;100.00;100142.78;4977291;28;20403;-81
2023/11/11 00:39:33;;;;;;;3.72;0.88;;;;;;;5.85;100.00;100151.91;4995066;28;20022;-81
2023/11/11 00:42:01;;;;;;;3.65;0.95;;;;;;;5.81;100.00;100166.34;4992828;28;20034;-82
2023/11/11 00:44:28;;;;;;;6.70;1.38;;;;;;;5.75;100.00;100167.69;4992790;28;20069;-79
2023/11/11 00:46:53;;;;;;;6.10;0.77;;;;;;;5.72;100.00;100167.06;4994235;28;20399;-81
2023/11/11 00:49:19;;;;;;;6.65;1.27;;;;;;;5.67;100.00;100166.63;4994077;28;20027;-82
2023/11/11 00:51:44;;;;;;;3.90;1.10;;;;;;;5.62;100.00;100173.09;4994378;28;20088;-81
2023/11/11 00:54:10;;;;;;;7.85;1.13;;;;;;;5.59;100.00;100178.63;4991453;28;20124;-81
2023/11/11 00:56:36;;;;;;;7.43;0.90;;;;;;;5.56;100.00;100181.53;4992908;28;20418;-81
2023/11/11 00:59:01;;;;;;;4.72;1.30;;;;;;;5.54;100.00;100182.59;4994017;28;20050;-82
2023/11/11 01:01:27;;;;;;;1.85;0.95;;;;;;;5.53;100.00;100176.50;4993744;28;20031;-82
2023/11/11 01:03:52;;;;;;;5.07;0.93;;;;;;;5.50;100.00;100171.47;4994016;28;20479;-82
2023/11/11 01:06:18;;;;;;;7.10;1.50;;;;;;;5.48;100.00;100166.31;4994004;28;20382;-82
2023/11/11 01:08:45;;;;;;;7.22;1.48;;;;;;;5.42;100.00;100172.06;4995148;28;20335;-81
2023/11/11 01:11:10;;;;;;;8.00;1.30;;;;;;;5.30;100.00;100168.59;4993788;28;20034;-82
2023/11/11 01:13:36;;;;;;;9.18;1.60;;;;;;;5.18;100.00;100169.59;4993682;28;20030;-81
2023/11/11 01:16:02;;;;;;;4.40;1.20;;;;;;;5.07;100.00;100174.84;4993606;28;20185;-82
2023/11/11 01:18:29;;;;;;;6.38;1.30;;;;;;;5.01;100.00;100177.97;4993649;28;20177;-81
2023/11/11 01:21:02;;;;;;;5.45;1.13;;;;;;;5.01;100.00;100173.53;4992336;28;20031;-81
2023/11/11 01:23:33;;;;;;;6.03;1.13;;;;;;;5.02;100.00;100180.47;4993675;28;20038;-82
2023/11/11 01:26:02;;;;;;;4.93;1.27;;;;;;;5.04;100.00;100178.56;4993401;28;20161;-81
2023/11/11 01:28:29;;;;;;;8.15;1.30;;;;;;;5.02;100.00;100180.47;4992155;28;20038;-82
2023/11/11 01:30:54;;;;;;;9.05;1.80;;;;;;;4.99;100.00;100180.72;4993689;28;20170;-81
2023/11/11 01:33:20;;;;;;;3.92;1.27;;;;;;;4.95;100.00;100180.09;4992162;28;20269;-81
2023/11/11 01:35:48;;;;;;;10.20;1.60;;;;;;;4.93;100.00;100181.22;4992033;28;20585;-81
2023/11/11 01:38:14;;;;;;;6.82;1.55;;;;;;;4.92;100.00;100179.50;4993443;28;20034;-81
2023/11/11 01:40:40;;;;;;;10.82;1.55;;;;;;;4.96;100.00;100180.97;4993178;28;20128;-82
2023/11/11 01:43:14;;;;;;;10.00;1.92;;;;;;;5.12;100.00;100196.44;4991440;28;20490;-83
2023/11/11 01:45:43;;;;;;;11.57;2.22;;;;;;;5.27;100.00;100191.78;4992865;28;20037;-83
2023/11/11 01:48:13;;;;;;;7.07;2.25;;;;;;;5.40;100.00;100189.81;4992935;28;20113;-86
2023/11/11 01:50:40;;;;;;;7.70;1.48;;;;;;;5.53;100.00;100188.84;4991563;28;20041;-82
2023/11/11 01:53:06;;;;;;;6.55;1.40;;;;;;;5.68;100.00;100176.22;4991365;28;20041;-84
2023/11/11 01:55:33;;;;;;;7.10;1.30;;;;;;;5.85;100.00;100169.56;4992579;28;20038;-80
2023/11/11 01:58:00;;;;;;;6.50;1.10;;;;;;;6.00;100.00;100174.47;4992925;28;20049;-83
2023/11/11 02:00:26;;;;;;;3.50;1.00;;;;;;;6.07;100.00;100172.16;4975209;28;20358;-84
2023/11/11 02:02:51;;;;;;;7.03;1.40;;;;;;;6.07;100.00;100171.34;4990771;28;20129;-84
2023/11/11 02:05:17;;;;;;;4.82;1.60;;;;;;;6.01;100.00;100183.22;5006176;28;20235;-82
2023/11/11 02:07:43;;;;;;;12.57;1.30;;;;;;;6.02;100.00;100189.34;4992052;28;20395;-84
2023/11/11 02:10:09;;;;;;;3.58;1.10;;;;;;;5.96;100.00;100183.59;4991972;28;20026;-83
2023/11/11 02:12:35;;;;;;;4.25;1.45;;;;;;;5.90;100.00;100188.53;4992224;28;20034;-82
2023/11/11 02:15:02;;;;;;;12.55;1.90;;;;;;;5.84;100.00;100187.22;4990650;28;20088;-84
2023/11/11 02:17:28;;;;;;;3.13;1.00;;;;;;;5.85;100.00;100190.69;4990993;28;20042;-82
2023/11/11 02:19:54;;;;;;;13.65;1.67;;;;;;;5.88;100.00;100199.22;4959002;28;20162;-83
2023/11/11 02:22:19;;;;;;;7.03;1.27;;;;;;;5.85;100.00;100198.63;4992947;28;20069;-88
2023/11/11 02:24:47;;;;;;;5.45;1.10;;;;;;;5.84;100.00;100197.78;4992047;28;20049;-85
2023/11/11 02:27:12;;;;;;;2.50;0.70;;;;;;;5.85;100.00;100199.44;4990564;28;20042;-85
2023/11/11 02:29:45;;;;;;;5.68;1.48;;;;;;;5.90;100.00;100210.50;4992417;28;20081;-83
2023/11/11 02:32:10;;;;;;;5.45;1.00;;;;;;;5.97;100.00;100201.16;4992404;28;20036;-83
2023/11/11 02:34:36;;;;;;;2.80;1.02;;;;;;;5.97;100.00;100206.44;4992176;28;20114;-84
2023/11/11 02:37:02;;;;;;;9.55;1.10;;;;;;;5.94;100.00;100206.66;4992349;28;20116;-82
2023/11/11 02:39:27;;;;;;;10.07;1.35;;;;;;;5.93;100.00;100222.63;4992004;28;20382;-84
2023/11/11 02:41:52;;;;;;;8.52;1.40;;;;;;;5.98;100.00;100223.94;4990935;28;20041;-83
2023/11/11 02:44:18;;;;;;;6.45;1.42;;;;;;;6.02;100.00;100228.97;4991959;28;20525;-83
2023/11/11 02:46:44;;;;;;;8.48;1.15;;;;;;;6.03;100.00;100218.31;4992390;28;20030;-83
2023/11/11 02:49:09;;;;;;;6.72;1.40;;;;;;;6.08;100.00;100215.28;4992187;28;20088;-82
2023/11/11 02:51:35;;;;;;;9.50;1.40;;;;;;;6.11;100.00;100212.38;4990490;28;20070;-87
2023/11/11 02:54:00;;;;;;;3.58;1.33;;;;;;;6.07;100.00;100209.13;4990580;28;20034;-84
2023/11/11 02:56:25;;;;;;;9.18;1.67;;;;;;;6.05;100.00;100221.63;4990890;28;20094;-88
2023/11/11 02:58:51;;;;;;;4.13;1.23;;;;;;;6.06;100.00;100212.75;4991454;28;20038;-79
2023/11/11 03:01:16;;;;;;;4.63;1.40;;;;;;;6.10;100.00;100206.25;4974556;28;20457;-85
2023/11/11 03:03:43;;;;;;;5.25;1.30;;;;;;;6.10;100.00;100216.81;4991667;28;20058;-86
2023/11/11 03:06:09;;;;;;;4.53;1.30;;;;;;;6.10;100.00;100224.72;4974312;28;20026;-87
2023/11/11 03:08:36;;;;;;;5.40;1.33;;;;;;;6.08;100.00;100220.56;4990670;28;20073;-84
2023/11/11 03:11:03;;;;;;;5.65;1.90;;;;;;;6.06;100.00;100233.03;4989999;28;20043;-82
2023/11/11 03:13:29;;;;;;;6.82;1.80;;;;;;;5.99;100.00;100241.47;4991359;28;20446;-81
2023/11/11 03:15:54;;;;;;;4.15;1.05;;;;;;;5.81;100.00;100237.63;4990984;28;20038;-81
2023/11/11 03:18:20;;;;;;;3.88;1.67;;;;;;;5.59;100.00;100234.06;4991519;28;20033;-79
2023/11/11 03:20:45;;;;;;;4.90;1.20;;;;;;;5.39;100.00;100240.06;4991260;28;20038;-80
2023/11/11 03:23:10;;;;;;;4.35;1.40;;;;;;;5.23;100.00;100235.16;4990805;28;20034;-80
2023/11/11 03:25:36;;;;;;;5.70;1.55;;;;;;;5.13;100.00;100237.66;4991274;28;20030;-80
2023/11/11 03:28:01;;;;;;;7.55;1.40;;;;;;;5.04;100.00;100244.47;4991417;28;20027;-80
2023/11/11 03:30:27;;;;;;;2.70;1.13;;;;;;;4.99;100.00;100248.44;4991252;28;20114;-81
2023/11/11 03:32:52;;;;;;;5.95;1.60;;;;;;;4.93;100.00;100253.22;4991329;28;20031;-80
2023/11/11 03:35:18;;;;;;;6.60;1.80;;;;;;;4.93;100.00;100257.66;4991221;28;20045;-81
2023/11/11 03:37:43;;;;;;;3.53;1.58;;;;;;;4.92;100.00;100261.25;4991604;28;20026;-81
2023/11/11 03:40:10;;;;;;;9.40;1.80;;;;;;;4.94;100.00;100260.19;4991724;28;20030;-82
2023/11/11 03:42:38;;;;;;;10.50;1.73;;;;;;;5.06;100.00;100266.31;4991284;28;20046;-84
2023/11/11 03:45:04;;;;;;;7.20;1.77;;;;;;;5.20;100.00;100262.59;4990870;28;20430;-80
2023/11/11 03:47:30;;;;;;;13.20;1.70;;;;;;;5.34;100.00;100263.34;4974057;28;20156;-80
2023/11/11 03:49:55;;;;;;;5.78;1.70;;;;;;;5.44;100.00;100267.78;4991367;28;20546;-84
2023/11/11 03:52:21;;;;;;;5.05;1.77;;;;;;;5.58;100.00;100271.13;4989604;28;20022;-83
2023/11/11 03:54:46;;;;;;;7.07;2.00;;;;;;;5.72;100.00;100265.59;4991865;28;20300;-83
2023/11/11 03:57:12;;;;;;;7.40;1.90;;;;;;;5.77;100.00;100259.97;4991401;28;20038;-84
2023/11/11 03:59:39;;;;;;;6.22;1.80;;;;;;;5.83;100.00;100264.75;4991501;28;20117;-86
2023/11/11 04:02:05;;;;;;;7.03;2.15;;;;;;;5.85;100.00;100256.69;4989757;28;20037;-86
2023/11/11 04:04:32;;;;;;;5.03;1.70;;;;;;;5.86;100.00;100259.22;4990665;28;20399;-84
2023/11/11 04:06:58;;;;;;;3.33;1.73;;;;;;;5.85;100.00;100259.34;4991142;28;20110;-85
2023/11/11 04:09:24;;;;;;;9.20;1.90;;;;;;;5.81;100.00;100270.16;4989645;28;20131;-82
2023/11/11 04:11:49;;;;;;;6.53;1.63;;;;;;;5.79;100.00;100268.59;4991115;28;20141;-81
2023/11/11 04:14:14;;;;;;;7.22;1.48;;;;;;;5.81;100.00;100274.59;4991101;28;20103;-83
2023/11/11 04:16:44;;;;;;;5.28;1.50;;;;;;;5.88;100.00;100273.16;4990880;28;20364;-86
2023/11/11 04:19:10;;;;;;;5.15;1.83;;;;;;;5.85;100.00;100273.38;4990811;28;20023;-85
2023/11/11 04:21:36;;;;;;;9.55;1.80;;;;;;;5.94;100.00;100287.66;4991084;28;20026;-86
2023/11/11 04:24:01;;;;;;;4.63;1.70;;;;;;;5.97;100.00;100277.72;4989261;28;20133;-84
2023/11/11 04:26:26;;;;;;;7.88;1.95;;;;;;;6.04;100.00;100279.88;4989811;28;20083;-85
2023/11/11 04:28:52;;;;;;;4.75;1.60;;;;;;;6.05;100.00;100273.63;4993429;28;20036;-86
2023/11/11 04:31:17;;;;;;;5.85;1.63;;;;;;;6.04;100.00;100278.06;4994516;28;20030;-86
2023/11/11 04:33:43;;;;;;;4.72;1.77;;;;;;;6.03;100.00;100283.47;4994582;28;20030;-83
2023/11/11 04:36:09;;;;;;;9.00;1.90;;;;;;;6.08;100.00;100289.22;4994738;28;20034;-84
2023/11/11 04:38:37;;;;;;;7.75;2.22;;;;;;;6.11;100.00;100279.25;4994480;28;20462;-83
2023/11/11 04:41:04;;;;;;;12.23;2.25;;;;;;;6.18;100.00;100292.81;4994525;28;20039;-83
2023/11/11 04:43:29;;;;;;;7.20;2.13;;;;;;;6.25;100.00;100293.16;4994418;28;20037;-84
2023/11/11 04:45:55;;;;;;;8.30;1.98;;;;;;;6.30;100.00;100301.53;4994585;28;20038;-83
2023/11/11 04:48:21;;;;;;;10.40;2.08;;;;;;;6.33;100.00;100315.34;4994360;28;20109;-82
2023/11/11 04:50:46;;;;;;;8.60;1.90;;;;;;;6.29;100.00;100313.91;4994326;28;20129;-80
2023/11/11 04:53:12;;;;;;;3.92;1.25;;;;;;;6.28;100.00;100320.16;4994429;28;20048;-81
2023/11/11 04:55:37;;;;;;;6.90;0.93;;;;;;;6.19;100.00;100320.88;4994456;28;20045;-85
2023/11/11 04:58:03;;;;;;;5.53;1.00;;;;;;;6.08;100.00;100326.22;4994129;28;20104;-86
2023/11/11 05:00:29;;;;;;;1.90;0.93;;;;;;;5.97;100.00;100316.47;4993152;28;20121;-84
2023/11/11 05:02:55;;;;;;;4.03;1.13;;;;;;;5.90;100.00;100315.28;4993870;28;20122;-85
2023/11/11 05:05:20;;;;;;;3.22;0.77;;;;;;;5.82;100.00;100319.38;4993582;28;20062;-86
2023/11/11 05:07:46;;;;;;;4.18;0.90;;;;;;;5.75;100.00;100315.53;4993807;28;20408;-85
2023/11/11 05:10:15;;;;;;;1.83;0.60;;;;;;;5.67;100.00;100320.53;4993466;28;20069;-85
2023/11/11 05:12:41;;;;;;;4.10;0.80;;;;;;;5.60;100.00;100329.94;4993341;28;20071;-86
2023/11/11 05:15:14;;;;;;;6.78;0.73;;;;;;;5.54;100.00;100331.25;4993678;28;20376;-85
2023/11/11 05:17:46;;;;;;;2.45;0.65;;;;;;;5.45;100.00;100319.59;4992028;28;20045;-86
2023/11/11 05:20:13;;;;;;;5.45;1.08;;;;;;;5.39;100.00;100322.72;4992066;28;20046;-86
2023/11/11 05:22:40;;;;;;;9.30;0.93;;;;;;;5.33;100.00;100324.97;4991814;28;20081;-86
2023/11/11 05:25:06;;;;;;;2.22;0.95;;;;;;;5.24;100.00;100324.72;4993455;28;20030;-86
2023/11/11 05:27:32;;;;;;;2.05;0.80;;;;;;;5.15;100.00;100333.34;4991690;28;20057;-86
2023/11/11 05:29:57;;;;;;;4.28;1.13;;;;;;;5.09;100.00;100337.28;4993536;28;20519;-86
2023/11/11 05:32:23;;;;;;;2.90;0.73;;;;;;;5.02;100.00;100340.50;4991916;28;20061;-87
2023/11/11 05:34:49;;;;;;;7.15;2.50;;;;;;;5.05;100.00;100343.72;4993657;28;20038;-85
2023/11/11 05:37:14;;;;;;;11.10;2.03;;;;;;;5.24;100.00;100347.59;4992897;28;20038;-88
2023/11/11 05:39:44;;;;;;;9.23;2.47;;;;;;;5.55;100.00;100348.72;4992257;28;20038;-86
2023/11/11 05:42:10;;;;;;;7.05;2.20;;;;;;;5.81;100.00;100349.34;4993173;28;20026;-89
2023/11/11 05:44:35;;;;;;;10.20;2.40;;;;;;;6.03;100.00;100353.00;4991665;28;20446;-88
2023/11/11 05:47:00;;;;;;;5.72;1.92;;;;;;;6.20;100.00;100348.16;4993501;28;20102;-85
2023/11/11 05:49:26;;;;;;;6.20;2.00;;;;;;;6.34;100.00;100348.75;4991817;28;20304;-87
2023/11/11 05:51:51;;;;;;;9.07;2.10;;;;;;;6.47;100.00;100345.09;4975205;28;20489;-87
2023/11/11 05:54:19;;;;;;;7.47;2.25;;;;;;;6.60;100.00;100337.84;4991461;28;20045;-88
2023/11/11 05:56:44;;;;;;;7.95;2.25;;;;;;;6.68;100.00;100334.56;4993191;28;20041;-86
2023/11/11 05:59:10;;;;;;;7.72;2.25;;;;;;;6.70;100.00;100340.56;4975289;28;20035;-88
2023/11/11 06:01:35;;;;;;;8.50;1.77;;;;;;;6.67;100.00;100346.97;4991583;28;20033;-88
2023/11/11 06:04:00;;;;;;;10.93;2.45;;;;;;;6.65;100.00;100350.69;5007433;28;20321;-88
2023/11/11 06:06:26;;;;;;;16.83;2.88;;;;;;;6.60;100.00;100353.72;4991074;28;20034;-89
2023/11/11 06:08:51;;;;;;;10.48;2.00;;;;;;;6.61;100.00;100355.38;4975346;28;20462;-89
2023/11/11 06:11:17;;;;;;;10.15;2.33;;;;;;;6.63;100.00;100358.75;4992910;28;20383;-84
2023/11/11 06:13:42;;;;;;;8.30;2.25;;;;;;;6.67;100.00;100360.19;4992502;28;20046;-89
2023/11/11 06:16:09;;;;;;;10.70;2.10;;;;;;;6.64;100.00;100357.78;4990780;28;20034;-90
2023/11/11 06:18:35;;;;;;;13.32;2.33;;;;;;;6.58;100.00;100360.91;4991248;28;20518;-91
2023/11/11 06:21:00;;;;;;;7.32;2.25;;;;;;;6.52;100.00;100364.06;4991102;28;20128;-89
2023/11/11 06:23:26;;;;;;;8.52;1.88;;;;;;;6.45;100.00;100358.44;4975090;28;20076;-89
2023/11/11 06:25:51;;;;;;;10.95;2.10;;;;;;;6.40;100.00;100363.25;4991187;28;20038;-90
2023/11/11 06:28:16;;;;;;;12.98;2.30;;;;;;;6.34;100.00;100361.94;4991170;28;20467;-85
2023/11/11 06:30:42;;;;;;;8.35;2.17;;;;;;;6.32;100.00;100363.84;4958964;28;20379;-90
2023/11/11 06:33:07;;;;;;;9.30;2.10;;;;;;;6.32;100.00;100373.59;4992656;28;20032;-87
2023/11/11 06:35:34;;;;;;;7.75;1.98;;;;;;;6.27;100.00;100368.69;4992210;28;20041;-88
2023/11/11 06:37:59;;;;;;;8.98;2.03;;;;;;;6.26;100.00;100369.63;4991166;28;20030;-91
2023/11/11 06:40:26;;;;;;;11.65;1.92;;;;;;;6.26;100.00;100374.09;4975093;28;20092;-90
2023/11/11 06:42:55;;;;;;;7.03;2.40;;;;;;;6.25;100.00;100375.03;4991170;28;20034;-84
2023/11/11 06:45:20;;;;;;;4.38;1.85;;;;;;;6.24;100.00;100382.16;4990548;28;20073;-88
2023/11/11 06:47:46;;;;;;;8.50;1.90;;;;;;;6.20;100.00;100378.06;4991430;28;20100;-89
2023/11/11 06:50:14;;;;;;;5.38;2.20;;;;;;;6.17;100.00;100383.59;4973866;28;20497;-88
2023/11/11 06:52:40;;;;;;;5.35;1.73;;;;;;;6.25;100.00;100391.72;4990377;28;20046;-90
2023/11/11 06:55:09;;;;;;;10.93;2.13;;;;;;;6.29;100.00;100379.13;4974364;28;20038;-86
2023/11/11 06:57:34;;;;;;;9.40;1.95;;;;;;;6.32;100.00;100392.09;4974877;28;20370;-88
2023/11/11 07:00:00;;;;;;;6.20;2.70;;;;;;;6.27;100.00;100386.31;5007670;28;20036;-89
2023/11/11 07:02:25;;;;;;;10.27;2.10;;;;;;;6.23;100.00;100393.66;4992047;28;20111;-91
2023/11/11 07:04:54;;;;;;;3.78;1.58;;;;;;;6.16;100.00;100393.28;4975256;28;20165;-85
2023/11/11 07:07:21;;;;;;;6.25;2.08;;;;;;;6.14;100.00;100397.88;4975427;28;20482;-88
2023/11/11 07:09:52;;;;;;;8.93;1.80;;;;;;;6.08;100.00;100405.44;4959354;28;20050;-88
2023/11/11 07:12:20;;;;;;;13.00;1.95;;;;;;;6.00;100.00;100408.66;4993151;28;20089;-90
2023/11/11 07:14:45;;;;;;;9.82;1.90;;;;;;;5.98;100.00;100407.97;4993459;28;20439;-90
2023/11/11 07:17:11;;;;;;;5.50;1.80;;;;;;;5.96;100.00;100413.34;4992204;28;20050;-90
2023/11/11 07:19:37;;;;;;;7.63;2.20;;;;;;;5.90;100.00;100418.25;4974343;28;20058;-89
2023/11/11 07:22:03;;;;;;;6.22;1.63;;;;;;;5.81;100.00;100419.81;4990967;28;20177;-89
2023/11/11 07:24:28;;;;;;;6.80;1.90;;;;;;;5.75;100.00;100425.56;4990984;28;20081;-88
2023/11/11 07:26:53;;;;;;;6.82;1.92;;;;;;;5.75;100.00;100430.84;4974246;28;20118;-87
2023/11/11 07:29:19;;;;;;;4.63;1.77;;;;;;;5.75;100.00;100438.78;4958887;28;20070;-88
2023/11/11 07:31:46;;;;;;;6.75;1.70;;;;;;;5.80;100.00;100441.88;4992225;28;20034;-88
2023/11/11 07:34:12;;;;;;;9.40;1.75;;;;;;;5.86;100.00;100436.13;4974587;28;20125;-89
2023/11/11 07:36:42;;;;;;;6.32;1.98;;;;;;;5.94;100.00;100446.09;4991762;28;20058;-91
2023/11/11 07:39:08;;;;;;;4.82;1.42;;;;;;;6.03;100.00;100441.94;4990810;28;20038;-88
2023/11/11 07:41:34;;;;;;;7.32;1.65;;;;;;;6.13;100.00;100435.81;5006412;28;20447;-89
2023/11/11 07:44:14;;;;;;;;;;;;;;;;;;;;;
2023/11/11 07:46:39;;;;;;;6.82;1.73;;;;;;;6.44;100.00;100445.78;4990367;28;20039;-87
2023/11/11 07:49:15;;;;;;;;;;;;;;;;;;;;;
2023/11/11 07:51:41;;;;;;;7.50;1.77;;;;;;;7.00;100.00;100452.72;4991774;28;20072;-87
2023/11/11 07:54:09;;;;;;;6.82;1.60;;;;;;;7.27;100.00;100443.50;4991141;28;20128;-88
2023/11/11 07:56:39;;;;;;;6.70;1.52;;;;;;;7.54;100.00;100440.38;5006724;28;20027;-92
2023/11/11 07:59:05;;;;;;;5.55;1.65;;;;;;;7.73;100.00;100451.06;4992861;28;20053;-88
2023/11/11 08:01:32;;;;;;;3.25;1.30;;;;;;;7.84;100.00;100454.63;5008099;28;20033;-90
2023/11/11 08:04:08;;;;;;;7.88;1.52;;;;;;;7.87;100.00;100460.50;5009343;28;20088;-89
2023/11/11 08:06:33;;;;;;;9.93;1.73;;;;;;;7.87;100.00;100454.38;5011992;28;20053;-87
2023/11/11 08:08:58;;;;;;;5.75;1.67;;;;;;;7.85;100.00;100450.97;4997567;28;20355;-92
2023/11/11 08:11:33;;;;;;;6.28;1.75;;;;;;;7.82;100.00;100470.63;5011007;28;20037;-92
2023/11/11 08:14:01;;;;;;;5.00;2.00;;;;;;;7.72;100.00;100465.28;4995643;28;20439;-88
2023/11/11 08:16:29;;;;;;;8.25;2.00;;;;;;;7.69;100.00;100465.53;4994973;28;20447;-88
2023/11/11 08:18:54;;;;;;;7.43;1.85;;;;;;;7.68;100.00;100469.16;4993513;28;20041;-84
2023/11/11 08:21:25;;;;;;;7.18;1.80;;;;;;;7.67;100.00;100479.88;4993515;28;20030;-87
2023/11/11 08:23:52;;;;;;;8.52;1.83;;;;;;;7.63;100.00;100491.69;4994490;28;20030;-86
2023/11/11 08:26:18;;;;;;;4.72;1.63;;;;;;;7.56;100.00;100497.50;4993537;28;20046;-89
2023/11/11 08:28:47;;;;;;;8.02;1.35;;;;;;;7.46;100.00;100498.38;4995242;28;20478;-86
2023/11/11 08:31:13;;;;;;;13.15;1.60;;;;;;;7.32;100.00;100504.84;4961943;28;20503;-83
2023/11/11 08:33:38;;;;;;;7.53;1.65;;;;;;;7.00;100.00;100503.00;4994076;28;20045;-84
2023/11/11 08:36:04;;;;;;;11.40;1.92;;;;;;;6.67;100.00;100502.94;4994231;28;20041;-82
2023/11/11 08:38:30;;;;;;;6.82;1.75;;;;;;;6.34;100.00;100503.78;4994008;28;20038;-80
2023/11/11 08:40:55;;;;;;;5.70;1.65;;;;;;;6.12;100.00;100501.97;4994569;28;20034;-79
2023/11/11 08:43:21;;;;;;;4.53;1.55;;;;;;;5.96;100.00;100510.22;4992934;28;20332;-80
2023/11/11 08:45:46;;;;;;;6.90;1.70;;;;;;;5.85;100.00;100512.81;4994329;28;20112;-78
2023/11/11 08:48:13;;;;;;;6.72;1.60;;;;;;;5.79;100.00;100522.03;4994490;28;20104;-79
2023/11/11 08:50:39;;;;;;;5.82;1.70;;;;;;;5.78;100.00;100517.75;4994002;28;20123;-81
2023/11/11 08:53:05;;;;;;;6.13;1.63;;;;;;;5.75;100.00;100517.97;4994522;28;20074;-84
2023/11/11 08:55:30;;;;;;;6.88;1.80;;;;;;;5.74;100.00;100524.19;4993259;28;20070;-85
2023/11/11 08:57:56;;;;;;;3.88;1.45;;;;;;;5.68;100.00;100541.34;4992771;28;20030;-81
2023/11/11 09:00:22;;;;;;;1.88;1.00;;;;;;;5.58;100.00;100533.28;5009533;28;20022;-78
2023/11/11 09:02:49;;;;;;;2.65;0.70;;;;;;;5.45;100.00;100541.25;4994558;28;20030;-78
2023/11/11 09:05:14;;;;;;;1.95;0.90;;;;;;;5.33;100.00;100534.25;4994508;28;20042;-80
2023/11/11 09:07:40;;;;;;;4.53;0.82;;;;;;;5.23;100.00;100523.50;4994277;28;20039;-80
2023/11/11 09:10:05;;;;;;;3.08;1.10;;;;;;;5.17;100.00;100525.78;4994210;28;20081;-81
2023/11/11 09:12:32;;;;;;;1.75;1.10;;;;;;;5.06;100.00;100518.63;4994130;28;20530;-79
2023/11/11 09:14:57;;;;;;;5.15;1.00;;;;;;;5.00;100.00;100527.84;4992831;28;20046;-79
2023/11/11 09:17:24;;;;;;;3.95;1.10;;;;;;;4.98;100.00;100534.16;4993584;28;20125;-77
2023/11/11 09:19:50;;;;;;;3.38;1.00;;;;;;;5.00;100.00;100533.09;4992519;28;20126;-82
2023/11/11 09:22:15;;;;;;;1.48;1.00;;;;;;;5.04;100.00;100536.34;4993565;28;20030;-84
2023/11/11 09:24:41;;;;;;;1.10;1.00;;;;;;;5.08;100.00;100538.66;4992539;28;20035;-82
2023/11/11 09:27:07;;;;;;;2.00;1.23;;;;;;;5.12;100.00;100536.66;4992430;28;20041;-82
2023/11/11 09:29:32;;;;;;;2.47;1.10;;;;;;;5.14;100.00;100529.47;4993673;28;20177;-83
2023/11/11 09:31:58;;;;;;;4.00;1.20;;;;;;;5.18;100.00;100548.53;4991982;28;20062;-78
2023/11/11 09:34:23;;;;;;;3.45;1.52;;;;;;;5.17;100.00;100536.31;4993746;28;20031;-80
2023/11/11 09:36:49;;;;;;;2.45;1.48;;;;;;;5.18;100.00;100545.91;4992039;28;20152;-79
2023/11/11 09:39:15;;;;;;;4.68;1.25;;;;;;;5.20;100.00;100546.66;4992307;28;20419;-79
2023/11/11 09:41:41;;;;;;;3.00;1.25;;;;;;;5.24;100.00;100546.31;4991650;28;20541;-80
2023/11/11 09:44:07;;;;;;;3.90;1.52;;;;;;;5.36;100.00;100554.25;4993305;28;20120;-79
2023/11/11 09:46:39;;;;;;;4.32;1.60;;;;;;;5.50;100.00;100543.53;4993000;28;20114;-77
2023/11/11 09:49:05;;;;;;;5.30;1.70;;;;;;;5.65;100.00;100554.75;4993286;28;20042;-80
2023/11/11 09:51:32;;;;;;;4.18;1.80;;;;;;;5.86;100.00;100557.59;4993178;28;20034;-79
2023/11/11 09:54:01;;;;;;;6.60;1.58;;;;;;;6.08;100.00;100556.84;4991317;28;20046;-80
2023/11/11 09:56:29;;;;;;;6.50;1.45;;;;;;;6.22;100.00;100558.41;4993537;28;20023;-83
2023/11/11 09:58:59;;;;;;;8.07;1.58;;;;;;;6.33;100.00;100553.16;4992916;28;20037;-78
2023/11/11 10:01:25;;;;;;;5.47;1.83;;;;;;;6.42;100.00;100556.03;4992741;28;20096;-82
2023/11/11 10:03:51;;;;;;;7.63;1.48;;;;;;;6.48;100.00;100561.72;4959072;28;20332;-78
2023/11/11 10:06:16;;;;;;;13.00;1.75;;;;;;;6.61;100.00;100553.63;4993346;28;20037;-81
2023/11/11 10:08:43;;;;;;;4.97;1.50;;;;;;;6.73;100.00;100558.94;4992687;28;20042;-82
2023/11/11 10:11:10;;;;;;;7.97;1.67;;;;;;;6.76;100.00;100558.69;4991585;28;20445;-78
2023/11/11 10:13:36;;;;;;;4.00;1.50;;;;;;;6.80;100.00;100553.03;4991268;28;20098;-84
2023/11/11 10:16:14;;;;;;;6.75;1.38;;;;;;;6.91;100.00;100556.63;4993171;28;20231;-78
2023/11/11 10:18:41;;;;;;;9.15;1.30;;;;;;;7.06;100.00;100552.75;4992432;28;20122;-78
2023/11/11 10:21:09;;;;;;;5.50;1.00;;;;;;;7.13;100.00;100555.75;4992811;28;20045;-84
2023/11/11 10:23:36;;;;;;;2.83;1.20;;;;;;;7.23;100.00;100551.41;4992385;28;20030;-80
2023/11/11 10:26:03;;;;;;;3.40;1.00;;;;;;;7.27;100.00;100559.94;4992106;28;20030;-76
2023/11/11 10:28:30;;;;;;;3.42;1.42;;;;;;;7.31;100.00;100558.72;4992459;28;20027;-82
2023/11/11 10:31:05;;;;;;;2.13;0.90;;;;;;;7.20;100.00;100559.59;4992495;28;20092;-81
2023/11/11 10:33:30;;;;;;;2.63;0.90;;;;;;;7.06;100.00;100574.78;4991401;28;20031;-89
2023/11/11 10:35:56;;;;;;;5.18;0.90;;;;;;;6.90;100.00;100574.31;4991175;28;20034;-81
2023/11/11 10:38:21;;;;;;;4.00;0.98;;;;;;;6.76;100.00;100575.38;4992261;28;20038;-84
2023/11/11 10:40:46;;;;;;;3.55;0.93;;;;;;;6.60;100.00;100566.97;4992575;28;20057;-82
2023/11/11 10:43:12;;;;;;;1.20;0.75;;;;;;;6.44;100.00;100570.00;4991062;28;20050;-83
2023/11/11 10:45:38;;;;;;;1.33;0.80;;;;;;;6.36;100.00;100570.59;4990199;28;20042;-84
2023/11/11 10:48:03;;;;;;;3.08;0.90;;;;;;;6.27;100.00;100573.91;4991918;28;20461;-79
2023/11/11 10:50:30;;;;;;;2.25;0.80;;;;;;;6.23;100.00;100565.41;4992247;28;20030;-82
2023/11/11 10:52:58;;;;;;;2.58;0.90;;;;;;;6.24;100.00;100574.16;4991949;28;20032;-82
2023/11/11 10:55:26;;;;;;;3.92;1.35;;;;;;;6.30;100.00;100571.91;4991842;28;20049;-82
2023/11/11 10:57:52;;;;;;;2.15;1.10;;;;;;;6.43;100.00;100573.59;4992087;28;20034;-82
2023/11/11 11:00:20;;;;;;;4.97;1.33;;;;;;;6.58;100.00;100575.03;4991860;28;20081;-85
2023/11/11 11:02:48;;;;;;;7.18;2.03;;;;;;;6.75;100.00;100579.03;4992021;28;20022;-80
2023/11/11 11:05:22;;;;;;;3.00;1.40;;;;;;;6.89;100.00;100576.09;4991916;28;20050;-79
2023/11/11 11:08:06;;;;;;;3.28;1.30;;;;;;;7.05;100.00;100577.56;4992109;28;20037;-82
2023/11/11 11:10:45;;;;;;;3.28;1.50;;;;;;;7.16;100.00;100576.69;4991634;28;20529;-85
2023/11/11 11:13:13;;;;;;;8.70;1.92;;;;;;;7.24;100.00;100576.91;5006825;28;20090;-85
2023/11/11 11:15:44;;;;;;;4.63;1.73;;;;;;;7.30;100.00;100578.19;4991575;28;20475;-83
2023/11/11 11:18:10;;;;;;;9.95;1.98;;;;;;;7.36;100.00;100577.69;4991780;28;20030;-79
2023/11/11 11:20:37;;;;;;;7.72;1.60;;;;;;;7.44;100.00;100577.09;4990717;28;20030;-81
2023/11/11 11:23:10;;;;;;;4.88;1.80;;;;;;;7.56;100.00;100582.22;4991487;28;20035;-82